createdAt,value
2023-04-05T00:00:54.568Z,-6.40
2023-04-05T00:03:22.455Z,-6.40
2023-04-05T00:05:50.907Z,-6.40
2023-04-05T00:08:24.265Z,-6.40
2023-04-05T00:10:52.082Z,-6.40
2023-04-05T00:13:19.399Z,-6.40
2023-04-05T00:15:47.647Z,-6.40
2023-04-05T00:18:24.432Z,-6.40
2023-04-05T00:20:52.091Z,-6.40
2023-04-05T00:23:22.949Z,-6.50
2023-04-05T00:25:53.351Z,-6.50
2023-04-05T00:28:20.584Z,-6.40
2023-04-05T00:30:47.834Z,-6.40
2023-04-05T00:33:15.013Z,-6.40
2023-04-05T00:35:42.474Z,-6.40
2023-04-05T00:38:10.111Z,-6.40
2023-04-05T00:40:37.736Z,-6.40
2023-04-05T00:43:05.321Z,-6.50
2023-04-05T00:45:33.050Z,-6.50
2023-04-05T00:48:01.766Z,-6.50
2023-04-05T00:50:31.098Z,-6.60
2023-04-05T00:52:58.918Z,-6.60
2023-04-05T00:55:26.994Z,-6.60
2023-04-05T00:57:56.096Z,-6.60
2023-04-05T01:00:25.191Z,-6.60
2023-04-05T01:03:02.637Z,-6.70
2023-04-05T01:05:30.447Z,-6.70
2023-04-05T01:08:09.456Z,-6.60
2023-04-05T01:10:40.445Z,-6.60
2023-04-05T01:13:09.129Z,-6.60
2023-04-05T01:15:36.764Z,-6.60
2023-04-05T01:18:04.526Z,-6.70
2023-04-05T01:20:37.610Z,-6.70
2023-04-05T01:23:32.353Z,-6.70
2023-04-05T01:26:02.810Z,-6.70
2023-04-05T01:28:37.731Z,-6.70
2023-04-05T01:31:31.437Z,-6.80
2023-04-05T01:34:20.046Z,-6.80
2023-04-05T01:36:55.071Z,-6.70
2023-04-05T01:39:24.488Z,-6.90
2023-04-05T01:41:51.919Z,-6.80
2023-04-05T01:44:19.085Z,-6.70
2023-04-05T01:46:46.551Z,-6.80
2023-04-05T01:49:13.725Z,-6.90
2023-04-05T01:51:42.342Z,-6.80
2023-04-05T01:54:10.194Z,-6.90
2023-04-05T01:56:37.592Z,-6.90
2023-04-05T01:59:04.995Z,-6.90
2023-04-05T02:01:32.464Z,-6.90
2023-04-05T02:03:59.927Z,-6.90
2023-04-05T02:06:27.664Z,-7.00
2023-04-05T02:08:54.861Z,-6.90
2023-04-05T02:11:21.990Z,-7.00
2023-04-05T02:13:49.136Z,-7.00
2023-04-05T02:16:17.448Z,-7.10
2023-04-05T02:18:51.122Z,-7.10
2023-04-05T02:21:19.019Z,-7.10
2023-04-05T02:23:46.498Z,-7.00
2023-04-05T02:26:13.679Z,-7.00
2023-04-05T02:28:43.632Z,-7.10
2023-04-05T02:31:11.959Z,-7.00
2023-04-05T02:33:39.832Z,-7.10
2023-04-05T02:36:13.307Z,-7.00
2023-04-05T02:38:41.162Z,-7.00
2023-04-05T02:41:14.624Z,-7.10
2023-04-05T02:43:41.844Z,-7.10
2023-04-05T02:46:09.093Z,-7.10
2023-04-05T02:48:36.447Z,-7.10
2023-04-05T02:51:03.627Z,-7.10
2023-04-05T02:53:31.214Z,-7.10
2023-04-05T02:56:00.292Z,-7.10
2023-04-05T02:58:27.470Z,-7.10
2023-04-05T03:00:56.388Z,-7.00
2023-04-05T03:03:24.474Z,-7.10
2023-04-05T03:06:01.725Z,-7.10
2023-04-05T03:08:28.968Z,-7.10
2023-04-05T03:10:56.231Z,-7.10
2023-04-05T03:13:23.696Z,-7.10
2023-04-05T03:15:55.225Z,-7.20
2023-04-05T03:18:22.798Z,-7.20
2023-04-05T03:20:50.566Z,-7.30
2023-04-05T03:23:18.131Z,-7.30
2023-04-05T03:25:45.259Z,-7.30
2023-04-05T03:28:12.519Z,-7.40
2023-04-05T03:30:39.709Z,-7.30
2023-04-05T03:33:07.729Z,-7.30
2023-04-05T03:35:35.265Z,-7.30
2023-04-05T03:38:02.758Z,-7.30
2023-04-05T03:40:30.027Z,-7.30
2023-04-05T03:42:57.164Z,-7.30
2023-04-05T03:45:24.774Z,-7.30
2023-04-05T03:47:52.294Z,-7.30
2023-04-05T03:50:19.943Z,-7.20
2023-04-05T03:52:47.518Z,-7.30
2023-04-05T03:55:16.971Z,-7.30
2023-04-05T03:57:44.649Z,-7.30
2023-04-05T04:00:15.082Z,-7.20
2023-04-05T04:02:47.183Z,-7.10
2023-04-05T04:05:16.252Z,-7.10
2023-04-05T04:07:44.786Z,-7.00
2023-04-05T04:10:15.102Z,-7.00
2023-04-05T04:12:42.227Z,-6.90
2023-04-05T04:15:10.221Z,-6.90
2023-04-05T04:17:38.320Z,-6.90
2023-04-05T04:20:15.543Z,-6.90
2023-04-05T04:22:43.174Z,-6.70
2023-04-05T04:25:11.983Z,-6.60
2023-04-05T04:27:44.833Z,-6.40
2023-04-05T04:30:15.166Z,-6.20
2023-04-05T04:32:55.666Z,-6.20
2023-04-05T04:35:29.581Z,-5.90
2023-04-05T04:38:10.608Z,-5.80
2023-04-05T04:40:39.665Z,-5.70
2023-04-05T04:43:17.298Z,-5.50
2023-04-05T04:45:49.342Z,-5.30
2023-04-05T04:48:17.061Z,-5.20
2023-04-05T04:50:45.490Z,-5.10
2023-04-05T04:53:21.004Z,-5.00
2023-04-05T04:55:50.492Z,-4.90
2023-04-05T04:58:18.164Z,-4.70
2023-04-05T05:00:45.668Z,-4.60
2023-04-05T05:03:13.723Z,-4.50
2023-04-05T05:05:45.462Z,-4.40
2023-04-05T05:08:13.459Z,-4.40
2023-04-05T05:10:41.127Z,-4.40
2023-04-05T05:13:08.863Z,-4.30
2023-04-05T05:15:36.087Z,-4.20
2023-04-05T05:18:03.671Z,-4.10
2023-04-05T05:20:30.935Z,-4.00
2023-04-05T05:23:01.617Z,-4.00
2023-04-05T05:25:29.951Z,-3.90
2023-04-05T05:27:57.291Z,-3.90
2023-04-05T05:30:24.633Z,-3.80
2023-04-05T05:32:53.114Z,-3.80
2023-04-05T05:35:20.761Z,-3.70
2023-04-05T05:37:47.976Z,-3.60
2023-04-05T05:40:16.491Z,-3.50
2023-04-05T05:42:46.293Z,-3.50
2023-04-05T05:45:13.746Z,-3.40
2023-04-05T05:47:42.268Z,-3.30
2023-04-05T05:50:10.272Z,-3.20
2023-04-05T05:52:37.775Z,-3.10
2023-04-05T05:55:05.565Z,-3.00
2023-04-05T05:57:33.029Z,-2.90
2023-04-05T06:00:00.320Z,-2.80
2023-04-05T06:02:28.444Z,-2.70
2023-04-05T06:04:56.070Z,-2.70
2023-04-05T06:07:23.441Z,-2.60
2023-04-05T06:09:50.945Z,-2.40
2023-04-05T06:12:18.130Z,-2.30
2023-04-05T06:14:45.650Z,-2.40
2023-04-05T06:17:12.996Z,-2.40
2023-04-05T06:19:40.463Z,-2.10
2023-04-05T06:22:07.682Z,-2.20
2023-04-05T06:24:35.201Z,-2.10
2023-04-05T06:27:05.098Z,-2.00
2023-04-05T06:29:32.412Z,-2.00
2023-04-05T06:31:59.871Z,-2.10
2023-04-05T06:34:30.013Z,-2.10
2023-04-05T06:36:57.535Z,-1.90
2023-04-05T06:39:24.968Z,-1.80
2023-04-05T06:41:52.604Z,-1.90
2023-04-05T06:44:19.817Z,-1.90
2023-04-05T06:46:47.347Z,-1.60
2023-04-05T06:49:14.592Z,-1.40
2023-04-05T06:51:41.810Z,-1.40
2023-04-05T06:54:09.347Z,-1.10
2023-04-05T06:56:36.984Z,-1.00
2023-04-05T06:59:04.199Z,-0.90
2023-04-05T07:01:31.721Z,-1.00
2023-04-05T07:03:59.334Z,-0.80
2023-04-05T07:06:26.567Z,-0.90
2023-04-05T07:08:54.029Z,-1.00
2023-04-05T07:11:21.740Z,-1.10
2023-04-05T07:13:49.002Z,-1.00
2023-04-05T07:16:18.434Z,-1.00
2023-04-05T07:18:46.056Z,-0.80
2023-04-05T07:21:13.248Z,-0.80
2023-04-05T07:23:40.683Z,-0.60
2023-04-05T07:26:08.672Z,-0.50
2023-04-05T07:28:36.694Z,-0.10
2023-04-05T07:31:05.985Z,0.50
2023-04-05T07:33:34.397Z,1.10
2023-04-05T07:36:03.477Z,1.50
2023-04-05T07:38:31.069Z,1.60
2023-04-05T07:40:59.096Z,1.70
2023-04-05T07:43:26.613Z,2.00
2023-04-05T07:46:02.193Z,1.70
2023-04-05T07:48:30.093Z,2.00
2023-04-05T07:50:57.771Z,1.90
2023-04-05T07:53:25.236Z,1.80
2023-04-05T07:55:53.664Z,2.10
2023-04-05T07:58:23.896Z,2.50
2023-04-05T08:00:53.460Z,2.40
2023-04-05T08:03:21.052Z,2.20
2023-04-05T08:05:48.315Z,1.80
2023-04-05T08:08:15.576Z,2.20
2023-04-05T08:10:43.289Z,2.60
2023-04-05T08:13:10.652Z,2.50
2023-04-05T08:15:37.903Z,2.70
2023-04-05T08:18:05.135Z,3.00
2023-04-05T08:20:32.344Z,2.50
2023-04-05T08:22:59.503Z,3.20
2023-04-05T08:25:28.356Z,3.00
2023-04-05T08:27:55.766Z,3.40
2023-04-05T08:30:23.687Z,3.80
2023-04-05T08:32:51.335Z,4.10
2023-04-05T08:35:18.862Z,3.90
2023-04-05T08:37:47.828Z,3.70
2023-04-05T08:40:15.171Z,3.60
2023-04-05T08:42:52.894Z,3.60
2023-04-05T08:45:23.113Z,3.60
2023-04-05T08:47:56.247Z,4.00
2023-04-05T08:50:24.693Z,3.70
2023-04-05T08:52:52.788Z,4.30
2023-04-05T08:55:20.586Z,4.40
2023-04-05T08:57:53.051Z,4.30
2023-04-05T09:00:20.492Z,4.30
2023-04-05T09:02:55.164Z,4.40
2023-04-05T09:05:25.819Z,4.60
2023-04-05T09:07:54.047Z,4.00
2023-04-05T09:10:22.777Z,3.80
2023-04-05T09:12:53.215Z,3.80
2023-04-05T09:15:24.388Z,4.10
2023-04-05T09:17:52.363Z,4.10
2023-04-05T09:20:19.832Z,4.30
2023-04-05T09:22:50.129Z,4.50
2023-04-05T09:25:40.570Z,4.20
2023-04-05T09:28:11.395Z,4.50
2023-04-05T09:30:39.754Z,3.70
2023-04-05T09:33:10.676Z,3.70
2023-04-05T09:35:38.358Z,3.90
2023-04-05T09:38:06.623Z,4.20
2023-04-05T09:40:48.157Z,4.30
2023-04-05T09:43:36.418Z,4.20
2023-04-05T09:46:03.789Z,4.40
2023-04-05T09:48:47.795Z,4.50
2023-04-05T09:51:16.786Z,4.00
2023-04-05T09:54:04.309Z,4.00
2023-04-05T09:56:36.840Z,3.80
2023-04-05T09:59:11.881Z,4.10
2023-04-05T10:01:43.788Z,4.10
2023-04-05T10:04:11.499Z,3.70
2023-04-05T10:06:41.403Z,3.80
2023-04-05T10:09:11.256Z,3.70
2023-04-05T10:11:39.309Z,4.00
2023-04-05T10:14:09.228Z,4.10
2023-04-05T10:16:50.029Z,4.00
2023-04-05T10:19:29.468Z,4.20
2023-04-05T10:22:01.461Z,3.50
2023-04-05T10:24:40.759Z,3.20
2023-04-05T10:27:23.682Z,3.20
2023-04-05T10:30:00.565Z,3.20
2023-04-05T10:32:39.054Z,2.90
2023-04-05T10:35:13.918Z,3.40
2023-04-05T10:38:16.715Z,3.30
2023-04-05T10:40:47.909Z,3.10
2023-04-05T10:43:21.188Z,3.30
2023-04-05T10:45:50.854Z,3.40
2023-04-05T10:48:54.711Z,3.60
2023-04-05T10:51:26.689Z,4.00
2023-04-05T10:53:56.479Z,4.40
2023-04-05T10:56:27.359Z,4.50
2023-04-05T10:58:56.898Z,4.40
2023-04-05T11:01:24.564Z,4.70
2023-04-05T11:03:53.122Z,4.80
2023-04-05T11:06:23.234Z,4.30
2023-04-05T11:08:54.986Z,4.30
2023-04-05T11:11:24.634Z,4.00
2023-04-05T11:13:54.788Z,3.80
2023-04-05T11:16:23.307Z,3.40
2023-04-05T11:18:52.400Z,3.50
2023-04-05T11:21:26.078Z,3.70
2023-04-05T11:24:07.604Z,3.50
2023-04-05T11:26:54.722Z,3.60
2023-04-05T11:29:51.356Z,3.10
2023-04-05T11:32:18.970Z,2.90
2023-04-05T11:34:59.787Z,2.80
2023-04-05T11:37:56.135Z,2.60
2023-04-05T11:40:29.908Z,2.70
2023-04-05T11:43:12.471Z,2.90
2023-04-05T11:45:44.752Z,2.70
2023-04-05T11:48:13.688Z,2.50
2023-04-05T11:50:43.465Z,2.10
2023-04-05T11:53:16.128Z,2.10
2023-04-05T11:55:47.310Z,2.20
2023-04-05T11:58:16.883Z,2.20
2023-04-05T12:00:46.200Z,1.80
2023-04-05T12:03:15.743Z,1.70
2023-04-05T12:05:54.010Z,1.80
2023-04-05T12:08:22.675Z,1.90
2023-04-05T12:10:58.265Z,1.90
2023-04-05T12:13:30.239Z,1.90
2023-04-05T12:16:02.147Z,1.80
2023-04-05T12:18:35.285Z,2.00
2023-04-05T12:21:07.281Z,1.80
2023-04-05T12:23:37.361Z,1.70
2023-04-05T12:26:06.636Z,1.80
2023-04-05T12:28:53.810Z,1.80
2023-04-05T12:31:36.459Z,2.00
2023-04-05T12:34:04.226Z,2.10
2023-04-05T12:36:32.538Z,2.00
2023-04-05T12:39:01.734Z,1.80
2023-04-05T12:41:33.335Z,2.00
2023-04-05T12:44:25.854Z,1.80
2023-04-05T12:47:03.454Z,1.90
2023-04-05T12:49:35.714Z,2.00
2023-04-05T12:52:05.850Z,2.10
2023-04-05T12:54:34.786Z,2.20
2023-04-05T12:57:09.209Z,2.20
2023-04-05T12:59:36.566Z,2.00
2023-04-05T13:02:04.244Z,2.30
2023-04-05T13:04:31.804Z,2.20
2023-04-05T13:06:59.306Z,2.30
2023-04-05T13:09:26.596Z,2.20
2023-04-05T13:11:54.308Z,2.30
2023-04-05T13:14:21.479Z,2.30
2023-04-05T13:16:48.987Z,2.30
2023-04-05T13:19:16.682Z,2.20
2023-04-05T13:21:43.895Z,2.40
2023-04-05T13:24:12.918Z,1.90
2023-04-05T13:26:41.025Z,1.70
2023-04-05T13:29:08.743Z,1.50
2023-04-05T13:31:36.023Z,1.60
2023-04-05T13:34:03.479Z,1.70
2023-04-05T13:36:31.290Z,1.80
2023-04-05T13:38:58.706Z,1.70
2023-04-05T13:41:26.334Z,1.90
2023-04-05T13:43:53.520Z,1.80
2023-04-05T13:46:21.127Z,2.00
2023-04-05T13:48:48.634Z,2.00
2023-04-05T13:51:16.188Z,2.00
2023-04-05T13:53:43.737Z,2.00
2023-04-05T13:56:11.274Z,2.00
2023-04-05T13:58:38.448Z,2.00
2023-04-05T14:01:06.144Z,2.10
2023-04-05T14:03:33.538Z,2.10
2023-04-05T14:06:01.071Z,1.80
2023-04-05T14:08:28.697Z,1.90
2023-04-05T14:10:56.759Z,2.10
2023-04-05T14:13:24.287Z,2.50
2023-04-05T14:15:52.769Z,2.30
2023-04-05T14:18:20.042Z,2.30
2023-04-05T14:20:47.555Z,2.40
2023-04-05T14:23:15.107Z,2.30
2023-04-05T14:25:42.773Z,2.30
2023-04-05T14:28:10.819Z,2.20
2023-04-05T14:30:38.660Z,2.50
2023-04-05T14:33:07.345Z,2.20
2023-04-05T14:35:34.644Z,1.70
2023-04-05T14:38:01.938Z,1.70
2023-04-05T14:40:29.338Z,1.50
2023-04-05T14:42:56.594Z,1.60
2023-04-05T14:45:27.272Z,1.60
2023-04-05T14:47:55.661Z,1.60
2023-04-05T14:50:23.333Z,1.30
2023-04-05T14:52:51.135Z,1.40
2023-04-05T14:55:18.729Z,1.50
2023-04-05T14:57:46.407Z,1.70
2023-04-05T15:00:14.232Z,1.50
2023-04-05T15:02:42.546Z,1.60
2023-04-05T15:05:10.094Z,1.30
2023-04-05T15:07:37.363Z,1.40
2023-04-05T15:10:05.215Z,1.30
2023-04-05T15:12:33.120Z,1.20
2023-04-05T15:15:01.434Z,1.20
2023-04-05T15:17:29.184Z,1.40
2023-04-05T15:19:56.698Z,1.50
2023-04-05T15:22:24.090Z,1.20
2023-04-05T15:24:51.364Z,1.30
2023-04-05T15:27:18.752Z,1.10
2023-04-05T15:29:46.503Z,1.10
2023-04-05T15:32:14.004Z,1.30
2023-04-05T15:34:46.587Z,1.10
2023-04-05T15:37:14.214Z,1.10
2023-04-05T15:39:41.433Z,0.70
2023-04-05T15:42:09.132Z,0.80
2023-04-05T15:44:36.529Z,0.90
2023-04-05T15:47:03.829Z,1.00
2023-04-05T15:49:31.393Z,1.20
2023-04-05T15:52:01.555Z,1.20
2023-04-05T15:54:28.823Z,1.10
2023-04-05T15:56:57.245Z,1.00
2023-04-05T15:59:25.449Z,1.00
2023-04-05T16:01:53.345Z,1.00
2023-04-05T16:04:21.460Z,1.00
2023-04-05T16:06:48.749Z,1.20
2023-04-05T16:09:15.892Z,1.30
2023-04-05T16:11:43.374Z,1.20
2023-04-05T16:14:11.654Z,1.30
2023-04-05T16:16:50.490Z,1.40
2023-04-05T16:19:21.417Z,1.10
2023-04-05T16:21:49.657Z,1.30
2023-04-05T16:24:17.793Z,1.10
2023-04-05T16:26:45.108Z,1.00
2023-04-05T16:29:12.584Z,1.10
2023-04-05T16:31:41.098Z,1.10
2023-04-05T16:34:08.563Z,1.20
2023-04-05T16:36:36.448Z,1.20
2023-04-05T16:39:04.511Z,1.10
2023-04-05T16:41:35.004Z,1.20
2023-04-05T16:44:23.254Z,1.20
2023-04-05T16:47:14.294Z,1.10
2023-04-05T16:49:46.437Z,1.10
2023-04-05T16:52:16.380Z,1.00
2023-04-05T16:54:47.045Z,1.20
2023-04-05T16:57:15.040Z,1.20
2023-04-05T16:59:44.642Z,1.20
2023-04-05T17:02:14.402Z,1.10
2023-04-05T17:04:42.583Z,1.00
2023-04-05T17:07:10.116Z,0.80
2023-04-05T17:09:37.469Z,0.90
2023-04-05T17:12:05.414Z,1.00
2023-04-05T17:14:33.026Z,1.10
2023-04-05T17:17:00.430Z,1.00
2023-04-05T17:19:27.868Z,1.00
2023-04-05T17:21:55.066Z,1.10
2023-04-05T17:24:22.354Z,1.00
2023-04-05T17:26:52.222Z,1.10
2023-04-05T17:29:19.884Z,1.00
2023-04-05T17:31:47.487Z,1.10
2023-04-05T17:34:16.745Z,1.10
2023-04-05T17:36:46.788Z,1.10
2023-04-05T17:39:15.799Z,0.90
2023-04-05T17:41:43.376Z,0.80
2023-04-05T17:44:10.694Z,0.70
2023-04-05T17:46:42.896Z,0.90
2023-04-05T17:49:13.947Z,0.90
2023-04-05T17:51:41.804Z,0.80
2023-04-05T17:54:09.654Z,0.80
2023-04-05T17:56:37.015Z,0.90
2023-04-05T17:59:04.867Z,0.90
2023-04-05T18:04:08.279Z,0.70
2023-04-05T18:06:39.370Z,0.80
2023-04-05T18:09:10.188Z,0.90
2023-04-05T18:11:38.418Z,0.90
2023-04-05T18:14:08.173Z,0.90
2023-04-05T18:16:37.497Z,1.00
2023-04-05T18:19:08.400Z,0.90
2023-04-05T18:21:35.886Z,0.90
2023-04-05T18:24:03.161Z,0.90
2023-04-05T18:26:31.341Z,0.90
2023-04-05T18:29:00.412Z,1.00
2023-04-05T18:31:29.255Z,0.90
2023-04-05T18:34:05.115Z,0.90
2023-04-05T18:36:33.281Z,0.90
2023-04-05T18:39:04.861Z,0.90
2023-04-05T18:41:32.498Z,0.70
2023-04-05T18:44:00.052Z,0.70
2023-04-05T18:46:27.435Z,0.50
2023-04-05T18:48:54.878Z,0.50
2023-04-05T18:51:25.444Z,0.50
2023-04-05T18:53:53.279Z,0.50
2023-04-05T18:56:21.427Z,0.50
2023-04-05T18:58:50.146Z,0.50
2023-04-05T19:01:19.118Z,0.60
2023-04-05T19:03:47.518Z,0.60
2023-04-05T19:06:15.069Z,0.40
2023-04-05T19:08:42.499Z,0.50
2023-04-05T19:11:13.721Z,0.40
2023-04-05T19:13:42.234Z,0.30
2023-04-05T19:16:09.535Z,0.20
2023-04-05T19:18:37.196Z,0.20
2023-04-05T19:21:04.489Z,0.10
2023-04-05T19:23:35.792Z,0.00
2023-04-05T19:26:06.794Z,-0.10
2023-04-05T19:28:37.989Z,-0.20
2023-04-05T19:31:06.709Z,-0.30
2023-04-05T19:33:36.545Z,-0.50
2023-04-05T19:36:04.262Z,-0.60
2023-04-05T19:38:31.648Z,-0.60
2023-04-05T19:41:00.215Z,-0.70
2023-04-05T19:43:31.862Z,-0.80
2023-04-05T19:46:01.027Z,-0.90
2023-04-05T19:48:42.076Z,-0.90
2023-04-05T19:51:11.051Z,-1.10
2023-04-05T19:53:48.426Z,-1.20
2023-04-05T19:56:31.219Z,-1.30
2023-04-05T19:59:27.344Z,-1.40
2023-04-05T20:01:54.792Z,-1.50
2023-04-05T20:04:24.798Z,-1.50
2023-04-05T20:06:54.381Z,-1.50
2023-04-05T20:09:31.425Z,-1.60
2023-04-05T20:11:59.614Z,-1.70
2023-04-05T20:14:36.051Z,-1.70
2023-04-05T20:17:06.484Z,-1.80
2023-04-05T20:19:34.329Z,-1.90
2023-04-05T20:22:03.016Z,-2.00
2023-04-05T20:24:30.954Z,-2.10
2023-04-05T20:26:58.573Z,-2.10
2023-04-05T20:29:28.111Z,-2.20
2023-04-05T20:31:55.875Z,-2.20
2023-04-05T20:34:39.030Z,-2.30
2023-04-05T20:37:07.742Z,-2.30
2023-04-05T20:39:35.771Z,-2.30
2023-04-05T20:42:04.093Z,-2.30
2023-04-05T20:44:31.843Z,-2.40
2023-04-05T20:46:59.848Z,-2.40
2023-04-05T20:49:28.172Z,-2.40
2023-04-05T20:51:57.703Z,-2.40
2023-04-05T20:54:25.191Z,-2.20
2023-04-05T20:56:52.598Z,-2.20
2023-04-05T20:59:19.954Z,-2.10
2023-04-05T21:01:47.721Z,-2.00
2023-04-05T21:04:15.313Z,-2.00
2023-04-05T21:06:43.995Z,-2.10
2023-04-05T21:09:13.773Z,-2.10
2023-04-05T21:11:42.131Z,-2.10
2023-04-05T21:14:09.653Z,-2.20
2023-04-05T21:16:37.036Z,-2.30
2023-04-05T21:19:04.458Z,-2.40
2023-04-05T21:21:32.096Z,-2.40
2023-04-05T21:23:59.677Z,-2.40
2023-04-05T21:26:27.337Z,-2.50
2023-04-05T21:28:54.852Z,-2.60
2023-04-05T21:31:22.394Z,-2.60
2023-04-05T21:33:49.903Z,-2.70
2023-04-05T21:36:17.110Z,-2.80
2023-04-05T21:38:44.279Z,-2.80
2023-04-05T21:41:11.632Z,-2.90
2023-04-05T21:43:39.145Z,-2.90
2023-04-05T21:46:06.959Z,-2.90
2023-04-05T21:48:34.637Z,-2.90
2023-04-05T21:51:02.513Z,-3.00
2023-04-05T21:53:30.729Z,-3.10
2023-04-05T21:55:58.034Z,-3.20
2023-04-05T21:58:27.322Z,-3.20
2023-04-05T22:00:54.622Z,-3.20
2023-04-05T22:03:21.832Z,-3.20
2023-04-05T22:05:49.291Z,-3.20
2023-04-05T22:08:16.872Z,-3.30
2023-04-05T22:10:44.402Z,-3.30
2023-04-05T22:13:14.177Z,-3.40
2023-04-05T22:15:41.621Z,-3.40
2023-04-05T22:18:09.286Z,-3.40
2023-04-05T22:20:36.715Z,-3.40
2023-04-05T22:23:06.876Z,-3.50
2023-04-05T22:25:34.028Z,-3.40
2023-04-05T22:28:01.609Z,-3.50
2023-04-05T22:30:40.867Z,-3.50
2023-04-05T22:33:13.062Z,-3.50
2023-04-05T22:35:41.155Z,-3.60
2023-04-05T22:38:08.908Z,-3.60
2023-04-05T22:40:36.383Z,-3.70
2023-04-05T22:43:03.672Z,-3.60
2023-04-05T22:45:30.939Z,-3.60
2023-04-05T22:47:58.255Z,-3.70
2023-04-05T22:50:25.696Z,-3.70
2023-04-05T22:52:52.836Z,-3.70
2023-04-05T22:55:20.164Z,-3.70
2023-04-05T22:57:47.482Z,-3.70
2023-04-05T23:00:15.118Z,-3.80
2023-04-05T23:02:43.158Z,-3.80
2023-04-05T23:05:11.163Z,-3.80
2023-04-05T23:07:38.324Z,-3.90
2023-04-05T23:10:06.015Z,-3.80
2023-04-05T23:12:33.522Z,-3.90
2023-04-05T23:15:00.931Z,-4.00
2023-04-05T23:17:28.225Z,-4.00
2023-04-05T23:19:55.505Z,-4.00
2023-04-05T23:22:22.706Z,-4.10
2023-04-05T23:24:50.205Z,-4.10
2023-04-05T23:27:17.690Z,-4.10
2023-04-05T23:29:44.900Z,-4.20
2023-04-05T23:32:13.779Z,-4.10
2023-04-05T23:34:41.542Z,-4.10
2023-04-05T23:37:08.585Z,-4.20
2023-04-05T23:39:36.054Z,-4.20
2023-04-05T23:42:04.739Z,-4.30
2023-04-05T23:44:32.325Z,-4.30
2023-04-05T23:47:00.051Z,-4.30
2023-04-05T23:49:28.229Z,-4.30
2023-04-05T23:51:55.956Z,-4.40
2023-04-05T23:54:23.171Z,-4.40
2023-04-05T23:56:50.376Z,-4.40
2023-04-05T23:59:17.829Z,-4.40
